• Join FlightAware (Why Join?)
  • Login
  • US Flag 
06:51PM EDT


 

Airport Tracker/Info


-or-


 

Live Flight TrackerFlight Track Log ✈ N868PB ✈ 25-Jun-2013 ✈ KBKL - KGVQ

Flight Track Log - Related Links

Times and Time Zones

All times are in EDT time to prevent confusion due to time zone crossing. See the N868PB flight status page for this flight to view local times or setup timezone preferences in your user account.

Time Position Orientation Groundspeed Altitude Reporting Facility
EDT Latitude Longitude Course Direction KTS MPH feet Rate Location/Type
06:17PM 41.7997 -81.2294 60° Northeast 174 200 3,900  Level Cleveland Center
06:18PM 41.8250 -81.1711 60° Northeast 175 201 3,900 -60 Level Cleveland Center
06:20PM 41.8516 -81.0926 66° East  Level FlightAware Approximate
06:27PM 41.9649 -80.7553 66° East  Level FlightAware Approximate
06:28PM 41.9810 -80.7070 66° East  Level FlightAware Approximate
06:29PM 42.0008 -80.6613 60° Northeast  Level Estimated
06:30PM 42.0204 -80.6153 60° Northeast  Level FlightAware Approximate
06:31PM 42.0399 -80.5694 60° Northeast  Level FlightAware Approximate
06:32PM 42.0595 -80.5234 60° Northeast  Level FlightAware Approximate
06:33PM 42.0790 -80.4774 60° Northeast  Level FlightAware Approximate
06:34PM 42.0985 -80.4313 60° Northeast  Level FlightAware Approximate
06:35PM 42.1180 -80.3852 60° Northeast  Level FlightAware Approximate
06:36PM 42.1374 -80.3391 60° Northeast  Level FlightAware Approximate
06:37PM 42.1569 -80.2930 60° Northeast  Level FlightAware Approximate
06:38PM 42.1763 -80.2468 60° Northeast  Level FlightAware Approximate
06:39PM 42.1957 -80.2007 60° Northeast  Level FlightAware Approximate
06:40PM 42.2151 -80.1544 60° Northeast  Level FlightAware Approximate
06:41PM 42.2345 -80.1082 60° Northeast  Level FlightAware Approximate
06:42PM 42.2538 -80.0619 61° Northeast  Level FlightAware Approximate
06:43PM 42.2731 -80.0156 61° Northeast  Level FlightAware Approximate
06:43PM 42.3667 -79.6500 57° Northeast 179 206 3,600  Level Buffalo TRACON
06:44PM 42.2924 -79.9693 61° Northeast  Level FlightAware Approximate
06:45PM 42.3117 -79.9229 61° Northeast  Level FlightAware Approximate
06:45PM 42.4000 -79.5667 62° Northeast 177 204 3,600  Level Buffalo TRACON
06:46PM 42.3310 -79.8765 61° Northeast  Level FlightAware Approximate
06:46PM 42.4333 -79.5167 48° Northeast 179 206 3,600  Level Buffalo TRACON
06:47PM 42.3503 -79.8301 61° Northeast  Level FlightAware Approximate
06:47PM 42.4500 -79.4500 71° East 179 206 3,600  Level Buffalo TRACON
06:48PM 42.3276 -79.7865 125° Southeast  Level FlightAware Approximate
06:48PM 42.4833 -79.4000 48° Northeast 181 208 3,700  Level Buffalo TRACON
06:49PM 42.3480 -79.7408 57° Northeast  Level Estimated
06:49PM 42.5000 -79.3333 71° East 183 211 3,700  Level Buffalo TRACON
06:50PM 42.5333 -79.2833 48° Northeast 185 213 3,700  Level Buffalo TRACON
06:51PM 42.5667 -79.2167 56° Northeast 185 213 3,700  Level Buffalo TRACON
06:52PM 42.5833 -79.1667 66° East 184 212 3,700  Level Buffalo TRACON
06:53PM 42.6167 -79.1000 56° Northeast 188 216 3,700  Level Buffalo TRACON
06:54PM 42.6500 -79.0333 56° Northeast 189 217 3,700  Level Buffalo TRACON
06:55PM 42.6667 -78.9833 66° East 189 217 3,700  Level Buffalo TRACON
06:56PM 42.7000 -78.9167 56° Northeast 187 215 3,700  Level Buffalo TRACON
06:57PM 42.7167 -78.8667 66° East 185 213 3,700  Level Buffalo TRACON
06:58PM 42.7500 -78.8167 48° Northeast 178 205 3,800 -60 Climbing Buffalo TRACON
06:59PM 42.7833 -78.7667 48° Northeast 196 226 3,600 -240 Descending Buffalo TRACON
07:00PM 42.8167 -78.7000 56° Northeast 191 220 3,400 -180 Descending Buffalo TRACON
07:01PM 42.8333 -78.6333 71° East 186 214 3,300 -120 Descending Buffalo TRACON
07:02PM 42.8667 -78.5833 48° Northeast 185 213 3,200 -120 Descending Buffalo TRACON
07:03PM 42.8833 -78.5167 71° East 190 219 3,100 -120 Descending Buffalo TRACON
07:04PM 42.9167 -78.4500 56° Northeast 188 216 3,000 -120 Descending Buffalo TRACON
07:05PM 42.9333 -78.3833 71° East 191 220 2,900 -120 Descending Buffalo TRACON